Accueil
METAR-TAF:

METAR-TAF

Aéroports :

Sabadell, Espagne

latitude: 41-31N, longitude: 002-06E, altitude: 250 m

Observation

Le bulletin a été fait il y a 28 minutes, à 15:00 UTC
Vent 12 kt de sud, variant entre sud/sud-est et sud-ouest
Température 24°C
Humidité 57%
Pression 1025 hPa
Visibilité 10 km ou plus
Quelques nuages à une hauteur de 3000 ft
Nuages épars à une hauteur de 4000 ft

METAR: LELL 191500Z 19012KT 150V230 9999 FEW030 SCT040 24/15 Q1025

Heure: 17:28 (15:28 UTC)

Prévision

Le bulletin a été fait il y a 1 heure et 28 minutes, à 14:00 UTC
Prévision valable du 19 à 15 UTC au 20 à 15 UTC
Vent 7 kt de sud-ouest
Visibilité 10 km ou plus
Nuages fragmentés à une hauteur de 3000 ft

TAF: LELL 191400Z 1915/2015 23007KT 9999 BKN030 TX24/2012Z TN15/2006Z

Observations et prévisions météorologiques de plus de 4000 aéroports (messages METAR et TAF).

Les stations disponibles sont représentées par des disques jaunes et rouges sur la carte.

Passer la souris dessus pour voir le nom de la station.

Cliquer dessus pour voir les observations et prévisions météorologiques.

Pour changer de carte: cliquez sur les boutons verts avec une croix noire pour zoomer, sur le bouton vert avec un tiret pour effectuer un zoom arrière, ou sur les flèches vertes pour les cartes adjacentes.


METAR-TAF: